sensor_id;sensor_type;location;lat;lon;timestamp;P1;durP1;ratioP1;P2;durP2;ratioP2
52412;SDS011;38339;53.234;6.578;2022-11-04T00:01:52;31.95;;;23.85;;
52412;SDS011;38339;53.234;6.578;2022-11-04T00:04:19;20.35;;;17.70;;
52412;SDS011;38339;53.234;6.578;2022-11-04T00:06:46;20.88;;;17.40;;
52412;SDS011;38339;53.234;6.578;2022-11-04T00:09:15;19.42;;;16.75;;
52412;SDS011;38339;53.234;6.578;2022-11-04T00:11:45;20.80;;;16.35;;
52412;SDS011;38339;53.234;6.578;2022-11-04T00:14:30;20.42;;;16.80;;
52412;SDS011;38339;53.234;6.578;2022-11-04T00:16:56;17.83;;;15.52;;
52412;SDS011;38339;53.234;6.578;2022-11-04T00:19:41;21.95;;;16.40;;
52412;SDS011;38339;53.234;6.578;2022-11-04T00:22:25;18.95;;;16.40;;
52412;SDS011;38339;53.234;6.578;2022-11-04T00:25:09;19.50;;;15.20;;
52412;SDS011;38339;53.234;6.578;2022-11-04T00:28:01;23.08;;;16.38;;
52412;SDS011;38339;53.234;6.578;2022-11-04T00:30:54;18.50;;;15.65;;
52412;SDS011;38339;53.234;6.578;2022-11-04T00:33:21;18.35;;;15.18;;
52412;SDS011;38339;53.234;6.578;2022-11-04T00:35:50;18.98;;;15.68;;
52412;SDS011;38339;53.234;6.578;2022-11-04T00:38:17;15.30;;;13.07;;
52412;SDS011;38339;53.234;6.578;2022-11-04T00:40:43;19.98;;;15.00;;
52412;SDS011;38339;53.234;6.578;2022-11-04T00:43:09;15.23;;;13.18;;
52412;SDS011;38339;53.234;6.578;2022-11-04T00:45:35;17.17;;;12.40;;
52412;SDS011;38339;53.234;6.578;2022-11-04T00:48:00;11.82;;;9.88;;
52412;SDS011;38339;53.234;6.578;2022-11-04T00:50:26;10.95;;;7.72;;
52412;SDS011;38339;53.234;6.578;2022-11-04T00:52:57;10.07;;;7.80;;
52412;SDS011;38339;53.234;6.578;2022-11-04T00:55:26;9.00;;;6.55;;
52412;SDS011;38339;53.234;6.578;2022-11-04T00:57:52;6.65;;;5.35;;
52412;SDS011;38339;53.234;6.578;2022-11-04T01:00:18;7.00;;;5.15;;
52412;SDS011;38339;53.234;6.578;2022-11-04T01:02:44;5.78;;;3.75;;
52412;SDS011;38339;53.234;6.578;2022-11-04T01:05:10;6.15;;;3.20;;
52412;SDS011;38339;53.234;6.578;2022-11-04T01:07:36;3.75;;;2.40;;
52412;SDS011;38339;53.234;6.578;2022-11-04T01:10:02;3.65;;;2.22;;
52412;SDS011;38339;53.234;6.578;2022-11-04T01:12:28;4.55;;;2.20;;
52412;SDS011;38339;53.234;6.578;2022-11-04T01:14:54;3.50;;;1.90;;
52412;SDS011;38339;53.234;6.578;2022-11-04T01:17:20;3.30;;;2.03;;
52412;SDS011;38339;53.234;6.578;2022-11-04T01:19:45;4.63;;;1.60;;
52412;SDS011;38339;53.234;6.578;2022-11-04T01:22:11;3.95;;;1.98;;
52412;SDS011;38339;53.234;6.578;2022-11-04T01:24:37;1.83;;;1.60;;
52412;SDS011;38339;53.234;6.578;2022-11-04T01:27:02;3.83;;;1.63;;
52412;SDS011;38339;53.234;6.578;2022-11-04T01:29:28;2.05;;;1.52;;
52412;SDS011;38339;53.234;6.578;2022-11-04T01:31:53;3.17;;;1.60;;
52412;SDS011;38339;53.234;6.578;2022-11-04T01:34:19;5.20;;;1.80;;
52412;SDS011;38339;53.234;6.578;2022-11-04T01:36:45;3.00;;;1.70;;
52412;SDS011;38339;53.234;6.578;2022-11-04T01:39:11;3.50;;;2.60;;
52412;SDS011;38339;53.234;6.578;2022-11-04T01:41:37;4.95;;;2.90;;
52412;SDS011;38339;53.234;6.578;2022-11-04T01:50:07;4.78;;;1.80;;
52412;SDS011;38339;53.234;6.578;2022-11-04T01:52:44;4.45;;;2.00;;
52412;SDS011;38339;53.234;6.578;2022-11-04T01:55:22;2.67;;;1.70;;
52412;SDS011;38339;53.234;6.578;2022-11-04T01:57:54;2.60;;;1.70;;
52412;SDS011;38339;53.234;6.578;2022-11-04T02:00:25;2.95;;;1.70;;
52412;SDS011;38339;53.234;6.578;2022-11-04T02:05:22;1.70;;;1.50;;
52412;SDS011;38339;53.234;6.578;2022-11-04T02:07:48;3.85;;;1.75;;
52412;SDS011;38339;53.234;6.578;2022-11-04T02:10:17;5.32;;;1.52;;
52412;SDS011;38339;53.234;6.578;2022-11-04T02:12:44;2.88;;;1.58;;
52412;SDS011;38339;53.234;6.578;2022-11-04T02:18:16;5.05;;;1.98;;
52412;SDS011;38339;53.234;6.578;2022-11-04T02:24:13;4.65;;;1.75;;
52412;SDS011;38339;53.234;6.578;2022-11-04T02:27:04;2.22;;;1.73;;
52412;SDS011;38339;53.234;6.578;2022-11-04T02:29:49;5.10;;;2.03;;
52412;SDS011;38339;53.234;6.578;2022-11-04T02:35:02;7.53;;;1.80;;
52412;SDS011;38339;53.234;6.578;2022-11-04T02:41:15;11.02;;;2.08;;
52412;SDS011;38339;53.234;6.578;2022-11-04T02:51:40;5.03;;;2.08;;
52412;SDS011;38339;53.234;6.578;2022-11-04T02:54:12;9.88;;;2.25;;
52412;SDS011;38339;53.234;6.578;2022-11-04T02:56:47;11.32;;;2.08;;
52412;SDS011;38339;53.234;6.578;2022-11-04T03:02:21;6.57;;;1.85;;
52412;SDS011;38339;53.234;6.578;2022-11-04T03:04:59;7.72;;;2.88;;
52412;SDS011;38339;53.234;6.578;2022-11-04T03:07:28;8.15;;;1.80;;
52412;SDS011;38339;53.234;6.578;2022-11-04T03:09:59;6.90;;;1.70;;
52412;SDS011;38339;53.234;6.578;2022-11-04T03:12:29;8.93;;;2.10;;
52412;SDS011;38339;53.234;6.578;2022-11-04T03:15:04;3.95;;;1.75;;
52412;SDS011;38339;53.234;6.578;2022-11-04T03:17:39;6.93;;;2.13;;
52412;SDS011;38339;53.234;6.578;2022-11-04T03:20:06;6.07;;;1.73;;
52412;SDS011;38339;53.234;6.578;2022-11-04T03:22:37;9.00;;;1.80;;
52412;SDS011;38339;53.234;6.578;2022-11-04T03:25:03;10.25;;;2.10;;
52412;SDS011;38339;53.234;6.578;2022-11-04T03:30:21;7.13;;;1.73;;
52412;SDS011;38339;53.234;6.578;2022-11-04T03:33:32;6.88;;;1.95;;
52412;SDS011;38339;53.234;6.578;2022-11-04T03:35:46;6.13;;;2.03;;
52412;SDS011;38339;53.234;6.578;2022-11-04T03:38:12;7.07;;;2.15;;
52412;SDS011;38339;53.234;6.578;2022-11-04T03:40:37;5.20;;;1.90;;
52412;SDS011;38339;53.234;6.578;2022-11-04T03:43:04;9.13;;;1.95;;
52412;SDS011;38339;53.234;6.578;2022-11-04T03:45:34;6.25;;;2.00;;
52412;SDS011;38339;53.234;6.578;2022-11-04T03:48:00;9.80;;;2.33;;
52412;SDS011;38339;53.234;6.578;2022-11-04T03:50:28;11.98;;;2.20;;
52412;SDS011;38339;53.234;6.578;2022-11-04T03:52:55;6.35;;;2.03;;
52412;SDS011;38339;53.234;6.578;2022-11-04T04:04:26;8.65;;;2.40;;
52412;SDS011;38339;53.234;6.578;2022-11-04T04:07:06;5.57;;;2.10;;
52412;SDS011;38339;53.234;6.578;2022-11-04T04:15:14;6.13;;;2.33;;
52412;SDS011;38339;53.234;6.578;2022-11-04T04:17:47;7.15;;;2.50;;
52412;SDS011;38339;53.234;6.578;2022-11-04T04:20:21;7.22;;;2.15;;
52412;SDS011;38339;53.234;6.578;2022-11-04T04:25:18;5.70;;;2.05;;
52412;SDS011;38339;53.234;6.578;2022-11-04T04:28:04;4.03;;;1.98;;
52412;SDS011;38339;53.234;6.578;2022-11-04T04:30:31;4.80;;;1.90;;
52412;SDS011;38339;53.234;6.578;2022-11-04T04:32:58;5.28;;;1.80;;
52412;SDS011;38339;53.234;6.578;2022-11-04T04:35:34;5.93;;;2.00;;
52412;SDS011;38339;53.234;6.578;2022-11-04T04:38:06;6.03;;;2.28;;
52412;SDS011;38339;53.234;6.578;2022-11-04T04:44:24;4.40;;;2.00;;
52412;SDS011;38339;53.234;6.578;2022-11-04T04:47:11;4.45;;;2.28;;
52412;SDS011;38339;53.234;6.578;2022-11-04T04:52:26;5.13;;;2.10;;
52412;SDS011;38339;53.234;6.578;2022-11-04T04:55:00;4.07;;;2.35;;
52412;SDS011;38339;53.234;6.578;2022-11-04T04:57:26;9.88;;;4.00;;
52412;SDS011;38339;53.234;6.578;2022-11-04T04:59:52;6.70;;;4.07;;
52412;SDS011;38339;53.234;6.578;2022-11-04T05:02:18;10.00;;;3.80;;
52412;SDS011;38339;53.234;6.578;2022-11-04T05:04:43;9.88;;;2.80;;
52412;SDS011;38339;53.234;6.578;2022-11-04T05:07:09;6.55;;;2.83;;
52412;SDS011;38339;53.234;6.578;2022-11-04T05:09:35;8.18;;;2.75;;
52412;SDS011;38339;53.234;6.578;2022-11-04T05:12:01;5.43;;;2.60;;
52412;SDS011;38339;53.234;6.578;2022-11-04T05:14:27;7.82;;;2.80;;
52412;SDS011;38339;53.234;6.578;2022-11-04T05:16:53;5.75;;;3.08;;
52412;SDS011;38339;53.234;6.578;2022-11-04T05:19:19;5.22;;;2.95;;
52412;SDS011;38339;53.234;6.578;2022-11-04T05:21:44;5.15;;;2.42;;
52412;SDS011;38339;53.234;6.578;2022-11-04T05:24:10;7.55;;;2.55;;
52412;SDS011;38339;53.234;6.578;2022-11-04T05:26:36;5.90;;;2.30;;
52412;SDS011;38339;53.234;6.578;2022-11-04T05:29:01;7.43;;;2.50;;
52412;SDS011;38339;53.234;6.578;2022-11-04T05:31:27;5.75;;;2.47;;
52412;SDS011;38339;53.234;6.578;2022-11-04T05:33:54;4.22;;;2.22;;
52412;SDS011;38339;53.234;6.578;2022-11-04T05:36:21;8.73;;;2.40;;
52412;SDS011;38339;53.234;6.578;2022-11-04T05:38:50;4.50;;;2.08;;
52412;SDS011;38339;53.234;6.578;2022-11-04T05:41:17;4.47;;;2.08;;
52412;SDS011;38339;53.234;6.578;2022-11-04T05:43:52;4.05;;;2.10;;
52412;SDS011;38339;53.234;6.578;2022-11-04T05:46:19;5.53;;;2.10;;
52412;SDS011;38339;53.234;6.578;2022-11-04T05:48:45;3.17;;;2.00;;
52412;SDS011;38339;53.234;6.578;2022-11-04T05:51:14;4.30;;;1.88;;
52412;SDS011;38339;53.234;6.578;2022-11-04T05:53:41;7.25;;;2.28;;
52412;SDS011;38339;53.234;6.578;2022-11-04T05:56:07;4.53;;;1.80;;
52412;SDS011;38339;53.234;6.578;2022-11-04T05:58:33;7.15;;;2.40;;
52412;SDS011;38339;53.234;6.578;2022-11-04T06:03:58;6.53;;;2.13;;
52412;SDS011;38339;53.234;6.578;2022-11-04T06:06:25;3.55;;;2.03;;
52412;SDS011;38339;53.234;6.578;2022-11-04T06:08:53;4.40;;;2.10;;
52412;SDS011;38339;53.234;6.578;2022-11-04T06:11:19;6.53;;;2.17;;
52412;SDS011;38339;53.234;6.578;2022-11-04T06:13:46;7.10;;;2.70;;
52412;SDS011;38339;53.234;6.578;2022-11-04T06:16:12;5.03;;;2.40;;
52412;SDS011;38339;53.234;6.578;2022-11-04T06:18:38;5.90;;;2.20;;
52412;SDS011;38339;53.234;6.578;2022-11-04T06:23:41;5.30;;;2.00;;
52412;SDS011;38339;53.234;6.578;2022-11-04T06:26:08;6.63;;;2.40;;
52412;SDS011;38339;53.234;6.578;2022-11-04T06:28:35;5.50;;;2.33;;
52412;SDS011;38339;53.234;6.578;2022-11-04T06:31:01;9.57;;;3.00;;
52412;SDS011;38339;53.234;6.578;2022-11-04T06:33:28;4.05;;;1.98;;
52412;SDS011;38339;53.234;6.578;2022-11-04T06:35:56;5.47;;;1.85;;
52412;SDS011;38339;53.234;6.578;2022-11-04T06:38:22;4.47;;;2.03;;
52412;SDS011;38339;53.234;6.578;2022-11-04T06:40:48;3.92;;;2.17;;
52412;SDS011;38339;53.234;6.578;2022-11-04T06:43:14;8.13;;;3.80;;
52412;SDS011;38339;53.234;6.578;2022-11-04T06:45:39;7.80;;;2.78;;
52412;SDS011;38339;53.234;6.578;2022-11-04T06:48:05;5.45;;;2.05;;
52412;SDS011;38339;53.234;6.578;2022-11-04T06:50:31;5.40;;;2.75;;
52412;SDS011;38339;53.234;6.578;2022-11-04T06:52:57;7.20;;;2.83;;
52412;SDS011;38339;53.234;6.578;2022-11-04T06:55:23;5.28;;;2.35;;
52412;SDS011;38339;53.234;6.578;2022-11-04T06:57:48;5.32;;;2.40;;
52412;SDS011;38339;53.234;6.578;2022-11-04T07:00:14;7.38;;;2.25;;
52412;SDS011;38339;53.234;6.578;2022-11-04T07:02:40;6.70;;;2.75;;
52412;SDS011;38339;53.234;6.578;2022-11-04T07:05:06;5.68;;;2.72;;
52412;SDS011;38339;53.234;6.578;2022-11-04T07:07:32;7.72;;;2.67;;
52412;SDS011;38339;53.234;6.578;2022-11-04T07:09:58;6.40;;;3.13;;
52412;SDS011;38339;53.234;6.578;2022-11-04T07:12:24;6.95;;;2.90;;
52412;SDS011;38339;53.234;6.578;2022-11-04T07:14:50;6.18;;;2.63;;
52412;SDS011;38339;53.234;6.578;2022-11-04T07:17:16;7.30;;;3.28;;
52412;SDS011;38339;53.234;6.578;2022-11-04T07:19:41;5.90;;;2.80;;
52412;SDS011;38339;53.234;6.578;2022-11-04T07:22:07;9.60;;;2.85;;
52412;SDS011;38339;53.234;6.578;2022-11-04T07:24:36;8.50;;;2.65;;
52412;SDS011;38339;53.234;6.578;2022-11-04T07:27:02;7.25;;;2.95;;
52412;SDS011;38339;53.234;6.578;2022-11-04T07:29:27;7.18;;;3.03;;
52412;SDS011;38339;53.234;6.578;2022-11-04T07:31:53;7.05;;;2.47;;
52412;SDS011;38339;53.234;6.578;2022-11-04T07:34:19;6.88;;;2.70;;
52412;SDS011;38339;53.234;6.578;2022-11-04T07:36:44;6.38;;;2.75;;
52412;SDS011;38339;53.234;6.578;2022-11-04T07:39:10;5.68;;;2.80;;
52412;SDS011;38339;53.234;6.578;2022-11-04T07:41:36;5.28;;;2.60;;
52412;SDS011;38339;53.234;6.578;2022-11-04T07:44:01;8.77;;;3.28;;
52412;SDS011;38339;53.234;6.578;2022-11-04T07:46:29;5.18;;;2.80;;
52412;SDS011;38339;53.234;6.578;2022-11-04T07:48:58;5.55;;;2.50;;
52412;SDS011;38339;53.234;6.578;2022-11-04T07:51:24;6.82;;;2.97;;
52412;SDS011;38339;53.234;6.578;2022-11-04T07:53:51;5.97;;;2.40;;
52412;SDS011;38339;53.234;6.578;2022-11-04T07:56:17;4.75;;;2.60;;
52412;SDS011;38339;53.234;6.578;2022-11-04T07:58:48;7.15;;;2.70;;
52412;SDS011;38339;53.234;6.578;2022-11-04T08:01:14;6.93;;;2.90;;
52412;SDS011;38339;53.234;6.578;2022-11-04T08:03:43;9.00;;;3.30;;
52412;SDS011;38339;53.234;6.578;2022-11-04T08:06:10;10.02;;;3.80;;
52412;SDS011;38339;53.234;6.578;2022-11-04T08:08:37;4.07;;;2.50;;
52412;SDS011;38339;53.234;6.578;2022-11-04T08:11:04;6.68;;;2.90;;
52412;SDS011;38339;53.234;6.578;2022-11-04T08:13:33;6.15;;;2.90;;
52412;SDS011;38339;53.234;6.578;2022-11-04T08:16:01;6.38;;;3.20;;
52412;SDS011;38339;53.234;6.578;2022-11-04T08:18:29;8.63;;;3.05;;
52412;SDS011;38339;53.234;6.578;2022-11-04T08:20:56;6.95;;;3.00;;
52412;SDS011;38339;53.234;6.578;2022-11-04T08:23:22;7.50;;;2.90;;
52412;SDS011;38339;53.234;6.578;2022-11-04T08:25:48;7.55;;;2.85;;
52412;SDS011;38339;53.234;6.578;2022-11-04T08:28:14;7.93;;;3.28;;
52412;SDS011;38339;53.234;6.578;2022-11-04T08:33:23;7.63;;;3.13;;
52412;SDS011;38339;53.234;6.578;2022-11-04T08:35:50;6.55;;;3.20;;
52412;SDS011;38339;53.234;6.578;2022-11-04T08:38:16;9.85;;;3.15;;
52412;SDS011;38339;53.234;6.578;2022-11-04T08:40:41;5.43;;;2.97;;
52412;SDS011;38339;53.234;6.578;2022-11-04T08:43:08;5.35;;;2.80;;
52412;SDS011;38339;53.234;6.578;2022-11-04T08:45:37;6.78;;;3.20;;
52412;SDS011;38339;53.234;6.578;2022-11-04T08:48:08;6.78;;;4.03;;
52412;SDS011;38339;53.234;6.578;2022-11-04T08:50:34;6.18;;;3.60;;
52412;SDS011;38339;53.234;6.578;2022-11-04T08:53:00;8.73;;;4.00;;
52412;SDS011;38339;53.234;6.578;2022-11-04T08:55:30;8.95;;;4.05;;
52412;SDS011;38339;53.234;6.578;2022-11-04T08:57:56;8.52;;;3.72;;
52412;SDS011;38339;53.234;6.578;2022-11-04T09:00:23;8.75;;;3.70;;
52412;SDS011;38339;53.234;6.578;2022-11-04T09:02:48;6.85;;;3.00;;
52412;SDS011;38339;53.234;6.578;2022-11-04T09:05:14;4.88;;;2.80;;
52412;SDS011;38339;53.234;6.578;2022-11-04T09:07:40;5.40;;;3.03;;
52412;SDS011;38339;53.234;6.578;2022-11-04T09:10:07;8.07;;;3.22;;
52412;SDS011;38339;53.234;6.578;2022-11-04T09:12:34;8.35;;;3.45;;
52412;SDS011;38339;53.234;6.578;2022-11-04T09:14:59;8.13;;;3.63;;
52412;SDS011;38339;53.234;6.578;2022-11-04T09:17:25;7.38;;;3.50;;
52412;SDS011;38339;53.234;6.578;2022-11-04T09:19:51;9.57;;;4.05;;
52412;SDS011;38339;53.234;6.578;2022-11-04T09:22:17;10.60;;;3.55;;
52412;SDS011;38339;53.234;6.578;2022-11-04T09:24:43;11.05;;;4.15;;
52412;SDS011;38339;53.234;6.578;2022-11-04T09:27:08;8.85;;;3.90;;
52412;SDS011;38339;53.234;6.578;2022-11-04T09:29:34;6.38;;;3.53;;
52412;SDS011;38339;53.234;6.578;2022-11-04T09:32:01;7.60;;;3.55;;
52412;SDS011;38339;53.234;6.578;2022-11-04T09:34:27;7.72;;;3.75;;
52412;SDS011;38339;53.234;6.578;2022-11-04T09:36:54;6.07;;;3.40;;
52412;SDS011;38339;53.234;6.578;2022-11-04T09:39:20;148.45;;;34.55;;
52412;SDS011;38339;53.234;6.578;2022-11-04T09:41:56;7.60;;;3.10;;
52412;SDS011;38339;53.234;6.578;2022-11-04T09:47:07;7.38;;;2.83;;
52412;SDS011;38339;53.234;6.578;2022-11-04T09:49:36;6.20;;;2.40;;
52412;SDS011;38339;53.234;6.578;2022-11-04T09:52:12;7.05;;;2.30;;
52412;SDS011;38339;53.234;6.578;2022-11-04T09:57:40;7.65;;;2.83;;
52412;SDS011;38339;53.234;6.578;2022-11-04T10:00:09;9.73;;;2.38;;
52412;SDS011;38339;53.234;6.578;2022-11-04T10:11:05;10.20;;;3.13;;
52412;SDS011;38339;53.234;6.578;2022-11-04T10:13:44;7.78;;;2.33;;
52412;SDS011;38339;53.234;6.578;2022-11-04T10:19:29;7.53;;;3.08;;
52412;SDS011;38339;53.234;6.578;2022-11-04T10:22:32;6.78;;;2.38;;
52412;SDS011;38339;53.234;6.578;2022-11-04T10:25:48;5.40;;;2.30;;
52412;SDS011;38339;53.234;6.578;2022-11-04T10:27:56;6.32;;;2.20;;
52412;SDS011;38339;53.234;6.578;2022-11-04T10:30:23;8.18;;;2.28;;
52412;SDS011;38339;53.234;6.578;2022-11-04T10:35:35;5.18;;;2.47;;
52412;SDS011;38339;53.234;6.578;2022-11-04T10:38:09;8.52;;;2.40;;
52412;SDS011;38339;53.234;6.578;2022-11-04T10:40:46;3.72;;;1.90;;
52412;SDS011;38339;53.234;6.578;2022-11-04T10:43:15;9.82;;;2.20;;
52412;SDS011;38339;53.234;6.578;2022-11-04T10:48:49;6.18;;;1.98;;
52412;SDS011;38339;53.234;6.578;2022-11-04T10:51:22;7.22;;;2.03;;
52412;SDS011;38339;53.234;6.578;2022-11-04T10:53:58;8.77;;;2.25;;
52412;SDS011;38339;53.234;6.578;2022-11-04T10:56:30;6.45;;;2.03;;
52412;SDS011;38339;53.234;6.578;2022-11-04T10:59:12;9.13;;;2.40;;
52412;SDS011;38339;53.234;6.578;2022-11-04T11:01:50;9.10;;;2.60;;
52412;SDS011;38339;53.234;6.578;2022-11-04T11:04:23;9.43;;;2.50;;
52412;SDS011;38339;53.234;6.578;2022-11-04T11:06:49;12.52;;;3.42;;
52412;SDS011;38339;53.234;6.578;2022-11-04T11:09:18;9.77;;;2.90;;
52412;SDS011;38339;53.234;6.578;2022-11-04T11:11:52;8.30;;;3.20;;
52412;SDS011;38339;53.234;6.578;2022-11-04T11:14:38;11.18;;;2.72;;
52412;SDS011;38339;53.234;6.578;2022-11-04T11:27:53;8.77;;;2.53;;
52412;SDS011;38339;53.234;6.578;2022-11-04T11:33:02;8.07;;;2.28;;
52412;SDS011;38339;53.234;6.578;2022-11-04T11:35:33;8.00;;;2.05;;
52412;SDS011;38339;53.234;6.578;2022-11-04T11:40:48;8.50;;;2.20;;
52412;SDS011;38339;53.234;6.578;2022-11-04T11:43:21;6.85;;;2.28;;
52412;SDS011;38339;53.234;6.578;2022-11-04T11:45:54;6.10;;;1.90;;
52412;SDS011;38339;53.234;6.578;2022-11-04T11:48:31;4.90;;;1.88;;
52412;SDS011;38339;53.234;6.578;2022-11-04T11:51:02;6.85;;;2.00;;
52412;SDS011;38339;53.234;6.578;2022-11-04T11:53:28;8.50;;;2.25;;
52412;SDS011;38339;53.234;6.578;2022-11-04T11:56:00;7.38;;;2.00;;
52412;SDS011;38339;53.234;6.578;2022-11-04T12:03:43;9.38;;;2.30;;
52412;SDS011;38339;53.234;6.578;2022-11-04T12:09:09;7.03;;;2.00;;
52412;SDS011;38339;53.234;6.578;2022-11-04T12:11:59;7.78;;;2.05;;
52412;SDS011;38339;53.234;6.578;2022-11-04T12:14:52;5.95;;;2.25;;
52412;SDS011;38339;53.234;6.578;2022-11-04T12:23:18;6.07;;;2.00;;
52412;SDS011;38339;53.234;6.578;2022-11-04T12:26:04;7.07;;;2.22;;
52412;SDS011;38339;53.234;6.578;2022-11-04T12:29:58;7.15;;;2.22;;
52412;SDS011;38339;53.234;6.578;2022-11-04T12:40:29;5.93;;;2.10;;
52412;SDS011;38339;53.234;6.578;2022-11-04T12:54:44;6.72;;;2.20;;
52412;SDS011;38339;53.234;6.578;2022-11-04T13:00:07;7.10;;;2.30;;
52412;SDS011;38339;53.234;6.578;2022-11-04T13:08:09;7.10;;;2.00;;
52412;SDS011;38339;53.234;6.578;2022-11-04T13:10:47;7.82;;;2.20;;
52412;SDS011;38339;53.234;6.578;2022-11-04T13:13:46;7.15;;;2.35;;
52412;SDS011;38339;53.234;6.578;2022-11-04T13:16:18;9.18;;;2.42;;
52412;SDS011;38339;53.234;6.578;2022-11-04T13:18:44;19.13;;;3.75;;
52412;SDS011;38339;53.234;6.578;2022-11-04T13:21:17;8.23;;;2.22;;
52412;SDS011;38339;53.234;6.578;2022-11-04T13:26:25;9.45;;;2.40;;
52412;SDS011;38339;53.234;6.578;2022-11-04T13:28:54;6.38;;;2.17;;
52412;SDS011;38339;53.234;6.578;2022-11-04T13:37:17;15.25;;;3.25;;
52412;SDS011;38339;53.234;6.578;2022-11-04T13:39:52;15.15;;;2.63;;
52412;SDS011;38339;53.234;6.578;2022-11-04T13:45:46;7.07;;;2.35;;
52412;SDS011;38339;53.234;6.578;2022-11-04T13:48:22;8.15;;;2.25;;
52412;SDS011;38339;53.234;6.578;2022-11-04T13:50:58;10.95;;;2.70;;
52412;SDS011;38339;53.234;6.578;2022-11-04T13:53:43;9.18;;;2.40;;
52412;SDS011;38339;53.234;6.578;2022-11-04T13:56:27;9.15;;;2.50;;
52412;SDS011;38339;53.234;6.578;2022-11-04T13:59:03;11.85;;;2.47;;
52412;SDS011;38339;53.234;6.578;2022-11-04T14:01:38;5.72;;;2.22;;
52412;SDS011;38339;53.234;6.578;2022-11-04T14:07:08;12.05;;;2.90;;
52412;SDS011;38339;53.234;6.578;2022-11-04T14:14:39;9.40;;;2.63;;
52412;SDS011;38339;53.234;6.578;2022-11-04T14:22:26;8.60;;;2.67;;
52412;SDS011;38339;53.234;6.578;2022-11-04T14:27:54;10.88;;;2.72;;
52412;SDS011;38339;53.234;6.578;2022-11-04T14:34:02;12.00;;;2.85;;
52412;SDS011;38339;53.234;6.578;2022-11-04T14:41:28;9.65;;;2.92;;
52412;SDS011;38339;53.234;6.578;2022-11-04T14:43:58;14.05;;;2.53;;
52412;SDS011;38339;53.234;6.578;2022-11-04T14:46:28;9.75;;;2.70;;
52412;SDS011;38339;53.234;6.578;2022-11-04T14:48:58;11.85;;;2.75;;
52412;SDS011;38339;53.234;6.578;2022-11-04T14:53:54;7.88;;;2.38;;
52412;SDS011;38339;53.234;6.578;2022-11-04T14:58:55;11.98;;;2.33;;
52412;SDS011;38339;53.234;6.578;2022-11-04T15:01:40;10.18;;;2.45;;
52412;SDS011;38339;53.234;6.578;2022-11-04T15:04:17;11.35;;;2.63;;
52412;SDS011;38339;53.234;6.578;2022-11-04T15:06:57;9.00;;;2.65;;
52412;SDS011;38339;53.234;6.578;2022-11-04T15:12:16;11.40;;;2.47;;
52412;SDS011;38339;53.234;6.578;2022-11-04T15:15:17;8.52;;;2.90;;
52412;SDS011;38339;53.234;6.578;2022-11-04T15:18:14;11.90;;;2.70;;
52412;SDS011;38339;53.234;6.578;2022-11-04T15:20:45;10.80;;;2.55;;
52412;SDS011;38339;53.234;6.578;2022-11-04T15:23:15;9.32;;;2.20;;
52412;SDS011;38339;53.234;6.578;2022-11-04T15:25:45;9.63;;;2.65;;
52412;SDS011;38339;53.234;6.578;2022-11-04T15:28:15;9.07;;;2.70;;
52412;SDS011;38339;53.234;6.578;2022-11-04T15:30:49;12.73;;;3.03;;
52412;SDS011;38339;53.234;6.578;2022-11-04T15:33:22;9.90;;;2.30;;
52412;SDS011;38339;53.234;6.578;2022-11-04T15:35:50;11.55;;;2.67;;
52412;SDS011;38339;53.234;6.578;2022-11-04T15:38:16;11.60;;;3.17;;
52412;SDS011;38339;53.234;6.578;2022-11-04T15:40:42;12.45;;;2.55;;
52412;SDS011;38339;53.234;6.578;2022-11-04T15:43:15;14.43;;;4.90;;
52412;SDS011;38339;53.234;6.578;2022-11-04T15:48:25;11.38;;;3.40;;
52412;SDS011;38339;53.234;6.578;2022-11-04T15:53:47;9.38;;;3.03;;
52412;SDS011;38339;53.234;6.578;2022-11-04T15:56:17;8.82;;;2.88;;
52412;SDS011;38339;53.234;6.578;2022-11-04T15:58:45;7.63;;;3.03;;
52412;SDS011;38339;53.234;6.578;2022-11-04T16:01:14;30.50;;;16.95;;
52412;SDS011;38339;53.234;6.578;2022-11-04T16:03:52;13.07;;;3.72;;
52412;SDS011;38339;53.234;6.578;2022-11-04T16:06:34;13.05;;;3.50;;
52412;SDS011;38339;53.234;6.578;2022-11-04T16:09:16;12.85;;;3.70;;
52412;SDS011;38339;53.234;6.578;2022-11-04T16:14:32;14.15;;;2.80;;
52412;SDS011;38339;53.234;6.578;2022-11-04T16:16:57;9.10;;;3.00;;
52412;SDS011;38339;53.234;6.578;2022-11-04T16:19:24;10.85;;;3.25;;
52412;SDS011;38339;53.234;6.578;2022-11-04T16:22:00;8.27;;;3.28;;
52412;SDS011;38339;53.234;6.578;2022-11-04T16:24:30;11.02;;;3.30;;
52412;SDS011;38339;53.234;6.578;2022-11-04T16:27:01;10.65;;;3.58;;
52412;SDS011;38339;53.234;6.578;2022-11-04T16:29:28;12.23;;;3.83;;
52412;SDS011;38339;53.234;6.578;2022-11-04T16:32:06;19.40;;;3.40;;
52412;SDS011;38339;53.234;6.578;2022-11-04T16:34:39;9.57;;;3.17;;
52412;SDS011;38339;53.234;6.578;2022-11-04T16:37:08;9.38;;;3.58;;
52412;SDS011;38339;53.234;6.578;2022-11-04T16:39:33;15.80;;;3.67;;
52412;SDS011;38339;53.234;6.578;2022-11-04T16:41:59;12.15;;;3.50;;
52412;SDS011;38339;53.234;6.578;2022-11-04T16:44:25;11.65;;;3.50;;
52412;SDS011;38339;53.234;6.578;2022-11-04T16:46:51;11.27;;;3.30;;
52412;SDS011;38339;53.234;6.578;2022-11-04T16:49:18;9.48;;;3.28;;
52412;SDS011;38339;53.234;6.578;2022-11-04T16:51:53;13.82;;;3.53;;
52412;SDS011;38339;53.234;6.578;2022-11-04T16:54:21;14.50;;;3.90;;
52412;SDS011;38339;53.234;6.578;2022-11-04T16:56:47;9.77;;;3.47;;
52412;SDS011;38339;53.234;6.578;2022-11-04T16:59:13;11.85;;;3.47;;
52412;SDS011;38339;53.234;6.578;2022-11-04T17:01:39;21.05;;;4.38;;
52412;SDS011;38339;53.234;6.578;2022-11-04T17:04:05;14.45;;;3.38;;
52412;SDS011;38339;53.234;6.578;2022-11-04T17:06:31;12.93;;;4.03;;
52412;SDS011;38339;53.234;6.578;2022-11-04T17:08:59;13.68;;;4.03;;
52412;SDS011;38339;53.234;6.578;2022-11-04T17:11:25;12.55;;;4.28;;
52412;SDS011;38339;53.234;6.578;2022-11-04T17:13:51;11.32;;;3.95;;
52412;SDS011;38339;53.234;6.578;2022-11-04T17:16:17;15.35;;;4.38;;
52412;SDS011;38339;53.234;6.578;2022-11-04T17:18:42;16.17;;;5.35;;
52412;SDS011;38339;53.234;6.578;2022-11-04T17:21:10;16.88;;;7.82;;
52412;SDS011;38339;53.234;6.578;2022-11-04T17:23:37;11.93;;;4.20;;
52412;SDS011;38339;53.234;6.578;2022-11-04T17:26:03;16.73;;;4.03;;
52412;SDS011;38339;53.234;6.578;2022-11-04T17:28:29;15.05;;;4.63;;
52412;SDS011;38339;53.234;6.578;2022-11-04T17:30:57;13.60;;;4.80;;
52412;SDS011;38339;53.234;6.578;2022-11-04T17:33:22;16.67;;;5.15;;
52412;SDS011;38339;53.234;6.578;2022-11-04T17:35:48;10.85;;;4.20;;
52412;SDS011;38339;53.234;6.578;2022-11-04T17:38:15;12.38;;;4.97;;
52412;SDS011;38339;53.234;6.578;2022-11-04T17:40:42;17.98;;;5.88;;
52412;SDS011;38339;53.234;6.578;2022-11-04T17:43:27;12.15;;;4.28;;
52412;SDS011;38339;53.234;6.578;2022-11-04T17:46:11;15.88;;;4.63;;
52412;SDS011;38339;53.234;6.578;2022-11-04T17:48:57;10.98;;;4.40;;
52412;SDS011;38339;53.234;6.578;2022-11-04T17:51:26;13.95;;;4.90;;
52412;SDS011;38339;53.234;6.578;2022-11-04T17:53:52;17.92;;;5.03;;
52412;SDS011;38339;53.234;6.578;2022-11-04T17:56:18;14.65;;;4.80;;
52412;SDS011;38339;53.234;6.578;2022-11-04T17:58:48;12.10;;;3.75;;
52412;SDS011;38339;53.234;6.578;2022-11-04T18:01:15;11.85;;;4.10;;
52412;SDS011;38339;53.234;6.578;2022-11-04T18:03:42;10.60;;;4.10;;
52412;SDS011;38339;53.234;6.578;2022-11-04T18:06:08;14.48;;;4.13;;
52412;SDS011;38339;53.234;6.578;2022-11-04T18:08:34;10.40;;;3.78;;
52412;SDS011;38339;53.234;6.578;2022-11-04T18:11:04;16.70;;;3.83;;
52412;SDS011;38339;53.234;6.578;2022-11-04T18:13:35;15.88;;;4.60;;
52412;SDS011;38339;53.234;6.578;2022-11-04T18:16:11;11.93;;;4.07;;
52412;SDS011;38339;53.234;6.578;2022-11-04T18:18:38;14.70;;;4.82;;
52412;SDS011;38339;53.234;6.578;2022-11-04T18:21:05;17.48;;;4.85;;
52412;SDS011;38339;53.234;6.578;2022-11-04T18:23:34;13.57;;;4.85;;